createdAt,value
2018-11-12T00:01:39.816Z,80.08
2018-11-12T00:04:08.966Z,79.92
2018-11-12T00:06:38.297Z,81.14
2018-11-12T00:09:10.961Z,80.57
2018-11-12T00:11:40.620Z,81.17
2018-11-12T00:14:10.225Z,81.21
2018-11-12T00:16:39.696Z,81.62
2018-11-12T00:19:09.329Z,81.38
2018-11-12T00:21:38.507Z,79.43
2018-11-12T00:24:10.809Z,79.46
2018-11-12T00:26:39.959Z,79.25
2018-11-12T00:29:09.244Z,79.18
2018-11-12T00:31:38.524Z,79.28
2018-11-12T00:34:07.870Z,79.82
2018-11-12T00:36:37.257Z,77.22
2018-11-12T00:39:12.964Z,77.93
2018-11-12T00:41:42.672Z,79.84
2018-11-12T00:44:11.895Z,80.69
2018-11-12T00:46:41.081Z,81.24
2018-11-12T00:49:10.428Z,82.79
2018-11-12T00:51:40.123Z,81.96
2018-11-12T00:54:12.224Z,83.54
2018-11-12T00:56:41.463Z,84.17
2018-11-12T00:59:10.823Z,84.39
2018-11-12T01:01:40.234Z,82.03
2018-11-12T01:04:09.580Z,83.56
2018-11-12T01:06:40.232Z,84.44
2018-11-12T01:09:12.348Z,84.89
2018-11-12T01:11:41.925Z,85.80
2018-11-12T01:14:11.191Z,86.50
2018-11-12T01:16:40.517Z,88.02
2018-11-12T01:19:09.761Z,87.38
2018-11-12T01:21:41.800Z,86.05
2018-11-12T01:24:11.663Z,88.14
2018-11-12T01:26:40.953Z,89.02
2018-11-12T01:29:10.258Z,89.00
2018-11-12T01:31:39.590Z,90.03
2018-11-12T01:34:08.811Z,88.93
2018-11-12T01:36:41.105Z,89.33
2018-11-12T01:39:11.950Z,89.80
2018-11-12T01:41:42.045Z,89.70
2018-11-12T01:44:12.102Z,89.48
2018-11-12T01:46:41.393Z,89.70
2018-11-12T01:49:12.992Z,88.69
2018-11-12T01:51:44.301Z,88.00
2018-11-12T01:54:13.737Z,88.92
2018-11-12T01:56:44.138Z,89.03
2018-11-12T01:59:15.200Z,88.73
2018-11-12T02:01:44.401Z,90.21
2018-11-12T02:04:13.691Z,89.27
2018-11-12T02:06:42.857Z,89.59
2018-11-12T02:09:13.706Z,89.77
2018-11-12T02:11:47.355Z,90.70
2018-11-12T02:14:16.944Z,90.48
2018-11-12T02:16:46.111Z,90.41
2018-11-12T02:19:15.404Z,91.92
2018-11-12T02:21:44.666Z,92.85
2018-11-12T02:24:13.910Z,92.43
2018-11-12T02:26:43.868Z,91.15
2018-11-12T02:29:14.912Z,90.76
2018-11-12T02:31:44.123Z,90.63
2018-11-12T02:34:13.231Z,91.24
2018-11-12T02:36:42.226Z,90.95
2018-11-12T02:39:11.769Z,91.85
2018-11-12T02:41:43.669Z,91.63
2018-11-12T02:44:13.287Z,90.35
2018-11-12T02:46:42.379Z,88.58
2018-11-12T02:49:11.570Z,89.12
2018-11-12T02:51:40.832Z,88.25
2018-11-12T02:54:09.965Z,88.77
2018-11-12T02:56:39.432Z,88.35
2018-11-12T02:59:08.922Z,87.04
2018-11-12T03:01:41.544Z,87.34
2018-11-12T03:04:10.343Z,86.69
2018-11-12T03:06:39.198Z,86.38
2018-11-12T03:09:11.143Z,86.55
2018-11-12T03:11:41.197Z,86.48
2018-11-12T03:14:12.320Z,86.12
2018-11-12T03:16:41.492Z,84.87
2018-11-12T03:19:10.309Z,84.64
2018-11-12T03:21:41.192Z,85.27
2018-11-12T03:24:10.534Z,84.56
2018-11-12T03:26:41.026Z,84.58
2018-11-12T03:29:12.942Z,85.43
2018-11-12T03:31:42.193Z,85.40
2018-11-12T03:34:11.481Z,85.54
2018-11-12T03:36:40.693Z,87.69
2018-11-12T03:39:11.749Z,88.64
2018-11-12T03:41:44.394Z,88.58
2018-11-12T03:44:13.684Z,89.16
2018-11-12T03:46:42.798Z,88.37
2018-11-12T03:49:12.122Z,88.94
2018-11-12T03:51:41.956Z,88.88
2018-11-12T03:54:12.351Z,88.33
2018-11-12T03:56:44.767Z,89.61
2018-11-12T03:59:13.996Z,89.89
2018-11-12T04:01:43.863Z,90.34
2018-11-12T04:04:14.777Z,90.33
2018-11-12T04:06:46.868Z,90.91
2018-11-12T04:09:16.108Z,89.66
2018-11-12T04:11:45.775Z,89.17
2018-11-12T04:14:15.093Z,88.14
2018-11-12T04:16:44.996Z,87.10
2018-11-12T04:19:15.870Z,86.34
2018-11-12T04:21:45.067Z,86.20
2018-11-12T04:24:14.262Z,85.34
2018-11-12T04:26:43.276Z,85.59
2018-11-12T04:29:12.493Z,84.88
2018-11-12T04:31:43.558Z,84.80
2018-11-12T04:34:13.297Z,85.78
2018-11-12T04:36:42.399Z,86.60
2018-11-12T04:39:11.749Z,88.11
2018-11-12T04:41:41.045Z,88.58
2018-11-12T04:44:10.302Z,88.56
2018-11-12T04:46:42.196Z,89.70
2018-11-12T04:49:14.510Z,90.52
2018-11-12T04:51:43.627Z,89.95
2018-11-12T04:54:12.829Z,90.30
2018-11-12T04:56:42.460Z,89.64
2018-11-12T04:59:11.699Z,88.55
2018-11-12T05:01:43.822Z,87.80
2018-11-12T05:04:13.191Z,88.81
2018-11-12T05:06:42.400Z,89.08
2018-11-12T05:09:11.956Z,89.98
2018-11-12T05:11:41.874Z,89.59
2018-11-12T05:14:11.119Z,90.54
2018-11-12T05:16:40.275Z,90.47
2018-11-12T05:19:09.518Z,88.92
2018-11-12T05:21:38.597Z,89.29
2018-11-12T05:24:11.202Z,90.00
2018-11-12T05:26:40.376Z,89.69
2018-11-12T05:29:09.621Z,89.73
2018-11-12T05:31:38.774Z,90.43
2018-11-12T05:34:09.050Z,90.04
2018-11-12T05:36:39.846Z,89.20
2018-11-12T05:39:13.591Z,90.26
2018-11-12T05:41:42.835Z,90.35
2018-11-12T05:44:12.034Z,90.38
2018-11-12T05:46:42.165Z,90.93
2018-11-12T05:49:13.298Z,91.96
2018-11-12T05:51:43.296Z,91.26
2018-11-12T05:54:12.762Z,92.28
2018-11-12T05:56:42.022Z,92.72
2018-11-12T05:59:11.224Z,91.87
2018-11-12T06:01:40.982Z,92.20
2018-11-12T06:04:10.582Z,91.94
2018-11-12T06:06:39.841Z,91.62
2018-11-12T06:09:13.253Z,91.60
2018-11-12T06:11:45.188Z,92.13
2018-11-12T06:14:14.382Z,93.03
2018-11-12T06:16:43.285Z,91.76
2018-11-12T06:19:12.583Z,91.63
2018-11-12T06:21:42.163Z,91.88
2018-11-12T06:24:12.899Z,91.90
2018-11-12T06:26:44.347Z,91.91
2018-11-12T06:29:13.576Z,92.29
2018-11-12T06:31:42.784Z,92.89
2018-11-12T06:34:12.109Z,93.94
2018-11-12T06:36:41.729Z,93.43
2018-11-12T06:39:13.316Z,93.88
2018-11-12T06:41:43.447Z,92.04
2018-11-12T06:44:12.735Z,91.04
2018-11-12T06:46:42.118Z,92.22
2018-11-12T06:49:11.250Z,93.33
2018-11-12T06:51:41.109Z,93.36
2018-11-12T06:54:13.475Z,92.51
2018-11-12T06:56:42.328Z,93.23
2018-11-12T06:59:11.191Z,93.60
2018-11-12T07:01:40.035Z,93.90
2018-11-12T07:04:08.882Z,94.41
2018-11-12T07:06:38.080Z,93.68
2018-11-12T07:09:14.255Z,94.06
2018-11-12T07:11:43.448Z,92.20
2018-11-12T07:14:12.690Z,91.38
2018-11-12T07:16:41.986Z,90.01
2018-11-12T07:19:11.236Z,89.19
2018-11-12T07:21:40.750Z,90.66
2018-11-12T07:24:12.399Z,90.81
2018-11-12T07:26:41.807Z,90.77
2018-11-12T07:29:13.961Z,90.33
2018-11-12T07:31:43.206Z,90.04
2018-11-12T07:34:13.583Z,89.77
2018-11-12T07:36:45.848Z,90.47
2018-11-12T07:39:15.106Z,89.48
2018-11-12T07:41:44.404Z,88.71
2018-11-12T07:44:13.663Z,89.41
2018-11-12T07:46:43.104Z,88.99
2018-11-12T07:49:13.387Z,87.42
2018-11-12T07:51:42.937Z,87.71
2018-11-12T07:54:12.920Z,88.46
2018-11-12T07:56:42.229Z,86.43
2018-11-12T07:59:11.554Z,86.01
2018-11-12T08:01:40.859Z,86.14
2018-11-12T08:04:10.013Z,85.08
2018-11-12T08:06:39.670Z,84.25
2018-11-12T08:09:11.972Z,83.60
2018-11-12T08:11:41.491Z,83.51
2018-11-12T08:14:10.729Z,82.55
2018-11-12T08:16:40.040Z,82.05
2018-11-12T08:19:09.342Z,80.61
2018-11-12T08:21:40.708Z,79.58
2018-11-12T08:24:11.522Z,78.07
2018-11-12T08:26:40.554Z,77.10
2018-11-12T08:29:09.811Z,77.13
2018-11-12T08:31:39.109Z,76.67
2018-11-12T08:34:08.266Z,76.38
2018-11-12T08:36:38.878Z,76.80
2018-11-12T08:39:10.409Z,73.85
2018-11-12T08:41:39.543Z,74.34
2018-11-12T08:44:08.891Z,72.92
2018-11-12T08:46:38.043Z,71.88
2018-11-12T08:49:07.521Z,70.06
2018-11-12T08:51:39.813Z,70.04
2018-11-12T08:54:09.211Z,68.68
2018-11-12T08:56:38.563Z,67.25
2018-11-12T08:59:07.896Z,65.16
2018-11-12T09:01:37.171Z,64.46
2018-11-12T09:04:06.677Z,64.36
2018-11-12T09:06:39.350Z,61.24
2018-11-12T09:09:11.807Z,57.83
2018-11-12T09:11:41.236Z,56.29
2018-11-12T09:14:10.727Z,56.25
2018-11-12T09:16:40.234Z,57.25
2018-11-12T09:19:11.913Z,58.31
2018-11-12T09:21:42.830Z,56.28
2018-11-12T09:24:12.243Z,55.26
2018-11-12T09:26:42.233Z,55.20
2018-11-12T09:29:11.538Z,55.91
2018-11-12T09:31:40.933Z,54.15
2018-11-12T09:34:10.206Z,55.36
2018-11-12T09:36:41.610Z,54.34
2018-11-12T09:39:14.695Z,53.42
2018-11-12T09:41:44.178Z,53.76
2018-11-12T09:44:13.478Z,54.89
2018-11-12T09:46:42.653Z,55.00
2018-11-12T09:49:11.964Z,54.75
2018-11-12T09:51:42.441Z,54.34
2018-11-12T09:54:13.185Z,53.96
2018-11-12T09:56:44.256Z,52.19
2018-11-12T09:59:13.587Z,50.20
2018-11-12T10:01:43.721Z,50.27
2018-11-12T10:04:13.250Z,49.27
2018-11-12T10:06:42.822Z,47.62
2018-11-12T10:09:17.645Z,50.21
2018-11-12T10:11:48.584Z,50.75
2018-11-12T10:14:17.631Z,48.46
2018-11-12T10:16:50.288Z,50.68
2018-11-12T10:19:15.676Z,50.35
2018-11-12T10:21:44.549Z,49.43
2018-11-12T10:24:13.377Z,50.61
2018-11-12T10:26:43.728Z,50.36
2018-11-12T10:29:15.152Z,50.49
2018-11-12T10:31:44.424Z,48.57
2018-11-12T10:34:13.703Z,46.87
2018-11-12T10:36:42.651Z,47.70
2018-11-12T10:39:13.604Z,47.28
2018-11-12T10:41:45.126Z,45.15
2018-11-12T10:44:14.249Z,46.05
2018-11-12T10:46:43.505Z,45.96
2018-11-12T10:49:12.806Z,45.79
2018-11-12T10:51:42.203Z,50.81
2018-11-12T10:54:11.534Z,47.94
2018-11-12T10:56:41.626Z,45.93
2018-11-12T10:59:12.963Z,43.59
2018-11-12T11:01:47.467Z,43.00
2018-11-12T11:04:23.117Z,42.05
2018-11-12T11:06:52.518Z,41.83
2018-11-12T11:09:21.535Z,44.73
2018-11-12T11:11:50.937Z,44.38
2018-11-12T11:14:20.131Z,44.48
2018-11-12T11:16:49.471Z,45.16
2018-11-12T11:19:21.084Z,46.27
2018-11-12T11:21:50.707Z,48.45
2018-11-12T11:24:22.237Z,46.64
2018-11-12T11:26:52.364Z,47.86
2018-11-12T11:29:21.211Z,49.83
2018-11-12T11:31:50.527Z,45.43
2018-11-12T11:34:19.932Z,46.49
2018-11-12T11:36:49.262Z,46.15
2018-11-12T11:39:21.476Z,44.29
2018-11-12T11:41:50.701Z,45.03
2018-11-12T11:44:20.034Z,43.75
2018-11-12T11:46:50.064Z,43.96
2018-11-12T11:49:21.266Z,43.54
2018-11-12T11:51:50.609Z,43.29
2018-11-12T11:54:19.855Z,44.91
2018-11-12T11:56:49.221Z,45.14
2018-11-12T11:59:18.249Z,47.09
2018-11-12T12:01:47.792Z,44.32
2018-11-12T12:04:19.195Z,42.29
2018-11-12T12:06:48.802Z,45.89
2018-11-12T12:09:17.987Z,44.49
2018-11-12T12:11:47.316Z,46.59
2018-11-12T12:14:16.595Z,45.22
2018-11-12T12:16:45.903Z,44.93
2018-11-12T12:19:17.491Z,46.81
2018-11-12T12:21:47.828Z,44.17
2018-11-12T12:24:17.976Z,46.04
2018-11-12T12:26:47.870Z,46.02
2018-11-12T12:29:18.473Z,47.01
2018-11-12T12:31:47.960Z,45.31
2018-11-12T12:34:17.270Z,45.88
2018-11-12T12:36:46.756Z,48.10
2018-11-12T12:39:15.905Z,49.10
2018-11-12T12:41:45.212Z,50.17
2018-11-12T12:44:15.214Z,50.43
2018-11-12T12:46:44.542Z,51.08
2018-11-12T12:49:13.794Z,51.66
2018-11-12T12:51:43.067Z,53.25
2018-11-12T12:54:12.311Z,52.02
2018-11-12T12:56:41.574Z,52.48
2018-11-12T12:59:11.031Z,52.90
2018-11-12T13:01:43.384Z,52.37
2018-11-12T13:04:12.409Z,52.77
2018-11-12T13:06:41.742Z,52.13
2018-11-12T13:09:11.205Z,51.02
2018-11-12T13:11:42.436Z,51.60
2018-11-12T13:14:12.605Z,53.72
2018-11-12T13:16:41.599Z,53.25
2018-11-12T13:19:10.920Z,53.86
2018-11-12T13:21:40.212Z,55.67
2018-11-12T13:24:09.552Z,56.83
2018-11-12T13:26:39.809Z,57.00
2018-11-12T13:29:12.163Z,59.06
2018-11-12T13:31:42.736Z,57.69
2018-11-12T13:34:12.052Z,57.97
2018-11-12T13:36:41.531Z,56.74
2018-11-12T13:39:12.517Z,58.10
2018-11-12T13:41:42.028Z,59.73
2018-11-12T13:44:13.259Z,60.01
2018-11-12T13:46:48.347Z,60.62
2018-11-12T13:49:17.473Z,60.74
2018-11-12T13:51:46.661Z,62.86
2018-11-12T13:54:16.021Z,60.96
2018-11-12T13:56:47.366Z,59.96
2018-11-12T13:59:17.524Z,59.63
2018-11-12T14:01:46.637Z,58.99
2018-11-12T14:04:15.947Z,58.43
2018-11-12T14:06:45.356Z,55.77
2018-11-12T14:09:17.525Z,55.48
2018-11-12T14:11:47.943Z,54.40
2018-11-12T14:14:17.265Z,51.53
2018-11-12T14:16:46.411Z,50.20
2018-11-12T14:19:15.615Z,50.79
2018-11-12T14:21:45.212Z,48.84
2018-11-12T14:24:14.259Z,49.51
2018-11-12T14:26:43.170Z,49.99
2018-11-12T14:29:15.032Z,49.83
2018-11-12T14:31:47.808Z,48.64
2018-11-12T14:34:17.034Z,48.51
2018-11-12T14:36:46.298Z,47.39
2018-11-12T14:39:15.550Z,46.19
2018-11-12T14:41:44.745Z,46.36
2018-11-12T14:44:14.088Z,47.13
2018-11-12T14:46:43.139Z,49.70
2018-11-12T14:49:14.253Z,48.78
2018-11-12T14:51:45.017Z,50.01
2018-11-12T14:54:14.364Z,50.51
2018-11-12T14:56:43.320Z,54.36
2018-11-12T14:59:14.306Z,55.38
2018-11-12T15:01:43.461Z,56.74
2018-11-12T15:04:12.741Z,53.29
2018-11-12T15:06:42.076Z,54.17
2018-11-12T15:09:13.134Z,54.27
2018-11-12T15:11:44.380Z,55.96
2018-11-12T15:14:13.526Z,57.61
2018-11-12T15:16:42.538Z,59.44
2018-11-12T15:19:11.832Z,60.27
2018-11-12T15:21:41.015Z,60.94
2018-11-12T15:24:11.738Z,61.65
2018-11-12T15:26:44.305Z,62.91
2018-11-12T15:29:14.413Z,64.43
2018-11-12T15:31:43.657Z,65.48
2018-11-12T15:34:12.938Z,66.34
2018-11-12T15:36:42.238Z,67.87
2018-11-12T15:39:12.029Z,67.71
2018-11-12T15:41:44.343Z,69.20
2018-11-12T15:44:13.673Z,69.12
2018-11-12T15:46:42.833Z,70.21
2018-11-12T15:49:12.132Z,70.70
2018-11-12T15:51:41.526Z,71.97
2018-11-12T15:54:11.889Z,73.09
2018-11-12T15:56:42.470Z,72.52
2018-11-12T15:59:11.679Z,73.66
2018-11-12T16:01:40.915Z,72.27
2018-11-12T16:04:10.107Z,73.93
2018-11-12T16:06:39.486Z,74.75
2018-11-12T16:09:13.089Z,74.88
2018-11-12T16:11:44.534Z,75.10
2018-11-12T16:14:13.943Z,75.11
2018-11-12T16:16:42.939Z,75.40
2018-11-12T16:19:12.177Z,76.24
2018-11-12T16:21:42.309Z,76.25
2018-11-12T16:24:14.823Z,76.40
2018-11-12T16:26:44.256Z,76.59
2018-11-12T16:29:13.484Z,77.80
2018-11-12T16:31:42.721Z,78.09
2018-11-12T16:34:12.058Z,78.97
2018-11-12T16:36:41.259Z,77.95
2018-11-12T16:39:13.035Z,77.71
2018-11-12T16:41:42.566Z,77.73
2018-11-12T16:44:11.678Z,78.12
2018-11-12T16:46:40.971Z,79.42
2018-11-12T16:49:10.076Z,80.15
2018-11-12T16:51:39.496Z,79.86
2018-11-12T16:54:11.502Z,79.86
2018-11-12T16:56:40.845Z,80.66
2018-11-12T16:59:10.048Z,80.53
2018-11-12T17:01:39.323Z,81.29
2018-11-12T17:04:08.435Z,81.78
2018-11-12T17:06:37.774Z,82.29
2018-11-12T17:09:10.945Z,82.80
2018-11-12T17:11:40.212Z,81.04
2018-11-12T17:14:09.685Z,81.58
2018-11-12T17:16:39.283Z,81.41
2018-11-12T17:19:11.067Z,81.66
2018-11-12T17:21:40.437Z,82.18
2018-11-12T17:24:09.682Z,82.04
2018-11-12T17:26:38.996Z,83.38
2018-11-12T17:29:08.327Z,82.68
2018-11-12T17:31:38.529Z,83.05
2018-11-12T17:34:09.027Z,82.94
2018-11-12T17:36:38.425Z,82.48
2018-11-12T17:39:08.503Z,82.82
2018-11-12T17:41:37.833Z,82.87
2018-11-12T17:44:07.579Z,83.01
2018-11-12T17:46:36.881Z,83.79
2018-11-12T17:49:07.078Z,82.94
2018-11-12T17:51:39.119Z,83.47
2018-11-12T17:54:08.455Z,83.42
2018-11-12T17:56:37.652Z,83.67
2018-11-12T17:59:07.414Z,83.28
2018-11-12T18:01:37.178Z,82.72
2018-11-12T18:04:06.508Z,82.79
2018-11-12T18:06:35.786Z,82.95
2018-11-12T18:09:06.323Z,83.53
2018-11-12T18:11:35.616Z,83.08
2018-11-12T18:14:05.235Z,81.88
2018-11-12T18:16:34.450Z,82.31
2018-11-12T18:19:03.865Z,83.31
2018-11-12T18:21:33.212Z,84.20
2018-11-12T18:24:02.458Z,83.92
2018-11-12T18:26:31.715Z,84.84
2018-11-12T18:29:01.028Z,84.85
2018-11-12T18:31:30.881Z,83.41
2018-11-12T18:34:00.028Z,84.03
2018-11-12T18:36:30.376Z,84.87
2018-11-12T18:39:01.220Z,84.62
2018-11-12T18:41:34.265Z,85.00
2018-11-12T18:44:03.569Z,84.26
2018-11-12T18:46:32.860Z,82.41
2018-11-12T18:49:03.897Z,81.59
2018-11-12T18:51:33.820Z,81.42
2018-11-12T18:54:04.937Z,82.04
2018-11-12T18:56:34.192Z,82.63
2018-11-12T18:59:03.515Z,82.29
2018-11-12T19:01:32.754Z,83.06
2018-11-12T19:04:02.046Z,83.00
2018-11-12T19:06:32.243Z,81.54
2018-11-12T19:09:05.494Z,80.27
2018-11-12T19:11:36.153Z,78.12
2018-11-12T19:14:05.693Z,77.05
2018-11-12T19:16:34.957Z,77.35
2018-11-12T19:19:05.066Z,77.15
2018-11-12T19:21:34.733Z,75.50
2018-11-12T19:24:04.162Z,75.00
2018-11-12T19:26:33.482Z,75.02
2018-11-12T19:29:02.741Z,75.41
2018-11-12T19:31:32.550Z,74.01
2018-11-12T19:34:03.281Z,76.51
2018-11-12T19:36:33.046Z,75.94
2018-11-12T19:39:02.578Z,76.95
2018-11-12T19:41:31.692Z,76.95
2018-11-12T19:44:00.960Z,77.87
2018-11-12T19:46:44.834Z,77.03
2018-11-12T19:49:14.762Z,77.53
2018-11-12T19:51:56.480Z,77.43
2018-11-12T19:54:25.708Z,77.06
2018-11-12T19:56:54.960Z,76.21
2018-11-12T19:59:24.248Z,77.40
2018-11-12T20:01:54.718Z,78.62
2018-11-12T20:04:24.306Z,79.08
2018-11-12T20:06:53.523Z,78.10
2018-11-12T20:09:24.012Z,78.45
2018-11-12T20:11:54.580Z,79.39
2018-11-12T20:14:23.771Z,79.06
2018-11-12T20:16:53.147Z,79.86
2018-11-12T20:19:22.483Z,78.69
2018-11-12T20:21:51.887Z,79.76
2018-11-12T20:24:22.638Z,80.18
2018-11-12T20:26:52.370Z,80.44
2018-11-12T20:29:21.629Z,80.37
2018-11-12T20:31:50.809Z,81.00
2018-11-12T20:34:20.102Z,82.15
2018-11-12T20:36:49.300Z,82.40
2018-11-12T20:39:18.638Z,81.19
2018-11-12T20:41:48.227Z,80.80
2018-11-12T20:44:19.203Z,80.90
2018-11-12T20:46:48.731Z,81.63
2018-11-12T20:49:18.074Z,82.61
2018-11-12T20:51:47.341Z,83.18
2018-11-12T20:54:16.572Z,84.14
2018-11-12T20:56:46.004Z,84.53
2018-11-12T20:59:17.150Z,83.67
2018-11-12T21:01:46.764Z,83.11
2018-11-12T21:04:16.002Z,82.42
2018-11-12T21:06:45.325Z,82.30
2018-11-12T21:09:15.035Z,82.75
2018-11-12T21:11:44.234Z,83.06
2018-11-12T21:14:13.943Z,83.21
2018-11-12T21:16:44.894Z,83.04
2018-11-12T21:19:14.429Z,83.26
2018-11-12T21:21:43.534Z,83.84
2018-11-12T21:24:12.844Z,82.45
2018-11-12T21:26:42.082Z,82.72
2018-11-12T21:29:12.397Z,83.42
2018-11-12T21:31:43.264Z,84.54
2018-11-12T21:34:12.649Z,83.33
2018-11-12T21:36:42.050Z,83.06
2018-11-12T21:39:14.453Z,83.39
2018-11-12T21:41:43.737Z,82.51
2018-11-12T21:44:12.984Z,81.42
2018-11-12T21:46:42.308Z,81.19
2018-11-12T21:49:11.576Z,81.70
2018-11-12T21:51:42.942Z,82.30
2018-11-12T21:54:12.139Z,81.77
2018-11-12T21:56:41.457Z,82.70
2018-11-12T21:59:10.790Z,83.22
2018-11-12T22:01:41.983Z,82.94
2018-11-12T22:04:12.038Z,83.31
2018-11-12T22:06:41.487Z,82.02
2018-11-12T22:09:12.323Z,81.47
2018-11-12T22:11:41.635Z,81.90
2018-11-12T22:14:10.878Z,81.95
2018-11-12T22:16:40.786Z,81.79
2018-11-12T22:19:10.027Z,81.91
2018-11-12T22:21:40.008Z,82.22
2018-11-12T22:24:09.294Z,82.18
2018-11-12T22:26:39.283Z,83.00
2018-11-12T22:29:09.367Z,82.43
2018-11-12T22:31:39.032Z,83.35
2018-11-12T22:34:08.372Z,84.10
2018-11-12T22:36:37.519Z,84.14
2018-11-12T22:39:10.925Z,82.98
2018-11-12T22:41:40.356Z,82.02
2018-11-12T22:44:10.750Z,82.46
2018-11-12T22:46:40.071Z,81.98
2018-11-12T22:49:09.468Z,82.21
2018-11-12T22:51:39.621Z,84.35
2018-11-12T22:54:08.943Z,81.61
2018-11-12T22:56:38.234Z,82.79
2018-11-12T22:59:07.481Z,81.18
2018-11-12T23:05:20.067Z,82.53
2018-11-12T23:07:49.671Z,83.29
2018-11-12T23:10:19.263Z,84.15
2018-11-12T23:12:48.561Z,83.44
2018-11-12T23:15:19.670Z,82.15
2018-11-12T23:17:50.072Z,82.54
2018-11-12T23:20:23.591Z,82.23
2018-11-12T23:22:53.136Z,83.66
2018-11-12T23:25:22.320Z,84.80
2018-11-12T23:27:52.862Z,84.91
2018-11-12T23:30:24.521Z,84.82
2018-11-12T23:32:53.809Z,85.91
2018-11-12T23:35:24.240Z,84.17
2018-11-12T23:37:53.117Z,83.51
2018-11-12T23:40:23.086Z,84.67
2018-11-12T23:42:54.463Z,85.10
2018-11-12T23:45:23.730Z,85.18
2018-11-12T23:47:52.836Z,85.09
2018-11-12T23:50:22.899Z,85.27
2018-11-12T23:52:53.399Z,83.55
2018-11-12T23:55:24.378Z,84.70
2018-11-12T23:57:56.183Z,84.83
